createdAt,value
2018-08-09T00:01:20.611Z,9.93
2018-08-09T00:05:24.002Z,9.80
2018-08-09T00:09:27.340Z,10.67
2018-08-09T00:13:30.671Z,12.47
2018-08-09T00:17:34.011Z,12.27
2018-08-09T00:21:37.363Z,10.23
2018-08-09T00:25:40.780Z,11.07
2018-08-09T00:29:44.717Z,10.00
2018-08-09T00:33:48.043Z,9.43
2018-08-09T00:37:53.023Z,11.97
2018-08-09T00:41:56.360Z,11.33
2018-08-09T00:45:59.696Z,11.67
2018-08-09T00:50:03.087Z,8.33
2018-08-09T00:54:07.112Z,10.30
2018-08-09T00:58:10.430Z,12.07
2018-08-09T01:02:13.795Z,10.97
2018-08-09T01:06:17.145Z,10.27
2018-08-09T01:10:20.524Z,11.00
2018-08-09T01:14:23.864Z,10.20
2018-08-09T01:18:27.202Z,11.43
2018-08-09T01:22:30.551Z,10.20
2018-08-09T01:26:33.903Z,12.77
2018-08-09T01:30:37.632Z,11.93
2018-08-09T01:34:40.977Z,11.43
2018-08-09T01:38:44.322Z,15.20
2018-08-09T01:42:58.764Z,17.00
2018-08-09T01:47:02.096Z,14.17
2018-08-09T01:51:05.428Z,13.70
2018-08-09T01:55:08.767Z,11.07
2018-08-09T01:59:12.082Z,17.60
2018-08-09T02:03:16.968Z,11.73
2018-08-09T02:07:20.843Z,11.33
2018-08-09T02:11:24.186Z,11.33
2018-08-09T02:15:27.547Z,12.33
2018-08-09T02:19:31.206Z,12.73
2018-08-09T02:23:34.943Z,10.30
2018-08-09T02:27:38.299Z,14.57
2018-08-09T02:31:41.666Z,10.57
2018-08-09T02:35:45.249Z,12.23
2018-08-09T02:39:48.589Z,14.93
2018-08-09T02:43:51.942Z,12.10
2018-08-09T02:47:55.289Z,11.83
2018-08-09T02:51:58.628Z,11.70
2018-08-09T02:56:01.958Z,14.10
2018-08-09T03:00:05.944Z,12.27
2018-08-09T03:04:09.297Z,11.10
2018-08-09T03:08:12.646Z,14.70
2018-08-09T03:12:15.988Z,13.43
2018-08-09T03:16:19.322Z,13.20
2018-08-09T03:20:22.639Z,12.20
2018-08-09T03:24:26.032Z,14.90
2018-08-09T03:28:30.471Z,14.10
2018-08-09T03:32:33.861Z,14.63
2018-08-09T03:36:38.877Z,13.87
2018-08-09T03:40:42.206Z,14.57
2018-08-09T03:44:45.534Z,15.07
2018-08-09T03:48:48.876Z,18.83
2018-08-09T03:52:52.202Z,18.43
2018-08-09T03:56:55.527Z,15.93
2018-08-09T04:00:58.903Z,13.77
2018-08-09T04:05:02.223Z,12.83
2018-08-09T04:09:08.485Z,14.17
2018-08-09T04:13:11.823Z,15.43
2018-08-09T04:17:19.944Z,17.10
2018-08-09T04:21:23.287Z,17.77
2018-08-09T04:25:26.619Z,21.53
2018-08-09T04:29:29.946Z,17.70
2018-08-09T04:33:34.643Z,24.80
2018-08-09T04:37:38.028Z,16.63
2018-08-09T04:41:41.356Z,17.53
2018-08-09T04:45:44.674Z,17.97
2018-08-09T04:49:48.002Z,19.17
2018-08-09T04:53:51.328Z,19.17
2018-08-09T04:57:56.061Z,21.53
2018-08-09T05:01:59.398Z,24.27
2018-08-09T05:06:03.220Z,18.33
2018-08-09T05:10:09.396Z,17.73
2018-08-09T05:14:12.747Z,18.40
2018-08-09T05:18:16.070Z,18.57
2018-08-09T05:22:19.404Z,19.87
2018-08-09T05:26:22.755Z,22.77
2018-08-09T05:30:26.143Z,19.13
2018-08-09T05:34:29.489Z,17.70
2018-08-09T05:38:32.848Z,17.57
2018-08-09T05:42:36.906Z,18.30
2018-08-09T05:46:40.214Z,19.30
2018-08-09T05:50:43.571Z,18.70
2018-08-09T05:54:46.900Z,17.13
2018-08-09T05:58:51.062Z,17.20
2018-08-09T06:02:54.428Z,22.27
2018-08-09T06:06:57.776Z,18.97
2018-08-09T06:11:01.119Z,22.37
2018-08-09T06:15:04.804Z,22.10
2018-08-09T06:19:08.358Z,26.53
2018-08-09T06:23:11.749Z,21.10
2018-08-09T06:27:16.035Z,20.87
2018-08-09T06:31:23.461Z,19.97
2018-08-09T06:35:26.819Z,23.10
2018-08-09T06:39:30.181Z,23.73
2018-08-09T06:43:33.522Z,20.97
2018-08-09T06:47:36.853Z,17.73
2018-08-09T06:51:40.211Z,26.53
2018-08-09T06:55:43.539Z,18.03
2018-08-09T06:59:46.906Z,18.33
2018-08-09T07:03:50.266Z,16.93
2018-08-09T07:07:53.615Z,15.73
2018-08-09T07:11:56.935Z,14.07
2018-08-09T07:16:00.262Z,15.40
2018-08-09T07:20:03.742Z,14.63
2018-08-09T07:24:07.085Z,15.70
2018-08-09T07:28:10.447Z,13.33
2018-08-09T07:32:13.791Z,16.57
2018-08-09T07:36:17.114Z,12.63
2018-08-09T07:40:20.484Z,17.10
2018-08-09T07:44:23.815Z,17.87
2018-08-09T07:48:27.179Z,13.43
2018-08-09T07:52:30.550Z,15.13
2018-08-09T07:56:33.863Z,14.67
2018-08-09T08:00:37.233Z,14.97
2018-08-09T08:04:40.567Z,13.87
2018-08-09T08:08:43.883Z,12.63
2018-08-09T08:12:47.206Z,13.83
2018-08-09T08:16:50.613Z,9.50
2018-08-09T08:20:53.936Z,8.73
2018-08-09T08:25:00.290Z,10.53
2018-08-09T08:29:03.663Z,16.83
2018-08-09T08:33:06.994Z,13.00
2018-08-09T08:37:10.384Z,17.53
2018-08-09T08:41:13.819Z,12.63
2018-08-09T08:45:17.149Z,12.17
2018-08-09T08:49:20.471Z,17.77
2018-08-09T08:53:23.780Z,14.83
2018-08-09T08:57:27.116Z,30.37
2018-08-09T09:01:30.490Z,19.63
2018-08-09T09:05:33.874Z,17.53
2018-08-09T09:09:37.215Z,18.03
2018-08-09T09:13:40.534Z,25.37
2018-08-09T09:17:44.583Z,18.27
2018-08-09T09:21:47.968Z,21.23
2018-08-09T09:25:51.307Z,26.40
2018-08-09T09:29:54.628Z,26.67
2018-08-09T09:33:57.984Z,24.73
2018-08-09T09:38:01.340Z,28.57
2018-08-09T09:42:04.678Z,25.40
2018-08-09T09:46:08.031Z,28.20
2018-08-09T09:50:12.021Z,30.23
2018-08-09T09:54:15.334Z,32.27
2018-08-09T09:58:18.671Z,29.77
2018-08-09T10:02:22.141Z,29.33
2018-08-09T10:06:25.505Z,31.10
2018-08-09T10:10:28.856Z,31.67
2018-08-09T10:14:32.219Z,30.03
2018-08-09T10:18:35.570Z,32.13
2018-08-09T10:22:38.962Z,30.13
2018-08-09T10:26:42.334Z,26.87
2018-08-09T10:30:45.803Z,31.17
2018-08-09T10:34:49.152Z,23.37
2018-08-09T10:38:52.526Z,22.33
2018-08-09T10:42:55.892Z,23.20
2018-08-09T10:46:59.227Z,21.50
2018-08-09T10:51:03.141Z,19.65
2018-08-09T10:55:06.844Z,18.90
2018-08-09T10:59:10.158Z,15.97
2018-08-09T11:03:13.563Z,15.77
2018-08-09T11:07:16.890Z,15.83
2018-08-09T11:11:20.311Z,16.73
2018-08-09T11:15:23.648Z,16.90
2018-08-09T11:19:26.986Z,17.67
2018-08-09T11:23:30.852Z,20.17
2018-08-09T11:27:34.190Z,17.13
2018-08-09T11:31:37.249Z,20.72
2018-08-09T11:35:40.602Z,13.70
2018-08-09T11:39:43.979Z,18.33
2018-08-09T11:43:47.280Z,17.70
2018-08-09T11:47:50.617Z,17.23
2018-08-09T11:51:53.939Z,17.85
2018-08-09T11:55:57.271Z,17.65
2018-08-09T12:00:00.720Z,13.80
2018-08-09T12:04:04.095Z,15.88
2018-08-09T12:08:07.451Z,17.23
2018-08-09T12:12:10.849Z,14.23
2018-08-09T12:16:14.183Z,13.45
2018-08-09T12:20:17.507Z,13.68
2018-08-09T12:24:20.916Z,12.93
2018-08-09T12:28:24.345Z,10.88
2018-08-09T12:32:27.699Z,11.63
2018-08-09T12:36:31.430Z,13.18
2018-08-09T12:40:34.786Z,12.07
2018-08-09T12:44:38.186Z,10.78
2018-08-09T12:48:41.547Z,15.38
2018-08-09T12:52:45.154Z,13.05
2018-08-09T12:56:48.525Z,11.53
2018-08-09T13:00:52.216Z,13.32
2018-08-09T13:04:55.552Z,10.18
2018-08-09T13:08:58.943Z,13.88
2018-08-09T13:13:02.300Z,11.28
2018-08-09T13:17:05.635Z,9.75
2018-08-09T13:21:09.011Z,10.53
2018-08-09T13:25:12.422Z,8.55
2018-08-09T13:29:15.746Z,11.43
2018-08-09T13:33:19.119Z,18.52
2018-08-09T13:37:22.492Z,16.77
2018-08-09T13:41:25.875Z,10.95
2018-08-09T13:45:29.219Z,11.50
2018-08-09T13:49:32.559Z,16.60
2018-08-09T13:53:35.939Z,11.70
2018-08-09T13:57:39.322Z,14.87
2018-08-09T14:01:42.666Z,24.02
2018-08-09T14:05:46.021Z,11.00
2018-08-09T14:09:49.368Z,12.28
2018-08-09T14:13:52.695Z,12.07
2018-08-09T14:17:56.039Z,25.62
2018-08-09T14:21:59.693Z,16.97
2018-08-09T14:26:03.036Z,13.22
2018-08-09T14:30:07.731Z,15.83
2018-08-09T14:34:11.083Z,21.42
2018-08-09T14:38:14.403Z,15.48
2018-08-09T14:42:17.748Z,11.63
2018-08-09T14:46:21.153Z,14.75
2018-08-09T14:50:24.498Z,14.15
2018-08-09T14:54:27.839Z,13.28
2018-08-09T14:58:31.212Z,15.00
2018-08-09T15:02:34.550Z,18.02
2018-08-09T15:06:37.875Z,15.32
2018-08-09T15:10:41.911Z,16.30
2018-08-09T15:14:45.376Z,11.43
2018-08-09T15:18:48.872Z,15.30
2018-08-09T15:22:52.224Z,20.10
2018-08-09T15:26:55.562Z,14.93
2018-08-09T15:30:58.916Z,11.57
2018-08-09T15:35:02.278Z,19.52
2018-08-09T15:39:09.610Z,13.00
2018-08-09T15:43:12.935Z,24.05
2018-08-09T15:47:16.304Z,20.90
2018-08-09T15:51:19.671Z,8.53
2018-08-09T15:55:22.996Z,9.93
2018-08-09T15:59:26.326Z,10.88
2018-08-09T16:03:29.650Z,7.73
2018-08-09T16:07:33.029Z,10.48
2018-08-09T16:11:36.438Z,12.23
2018-08-09T16:15:39.848Z,8.90
2018-08-09T16:19:43.250Z,11.07
2018-08-09T16:23:46.622Z,7.53
2018-08-09T16:27:50.428Z,8.17
2018-08-09T16:31:53.868Z,6.43
2018-08-09T16:35:57.227Z,9.13
2018-08-09T16:40:00.614Z,20.87
2018-08-09T16:44:03.979Z,8.13
2018-08-09T16:48:07.415Z,10.97
2018-08-09T16:52:10.764Z,15.73
2018-08-09T16:56:14.120Z,6.87
2018-08-09T17:00:20.067Z,8.60
2018-08-09T17:04:23.420Z,5.83
2018-08-09T17:08:26.762Z,5.10
2018-08-09T17:12:30.124Z,5.20
2018-08-09T17:16:33.506Z,8.40
2018-08-09T17:20:36.881Z,4.73
2018-08-09T17:24:40.276Z,7.93
2018-08-09T17:28:43.634Z,7.83
2018-08-09T17:32:46.999Z,4.00
2018-08-09T17:36:50.348Z,7.03
2018-08-09T17:40:53.714Z,6.60
2018-08-09T17:44:57.073Z,8.13
2018-08-09T17:49:00.396Z,9.80
2018-08-09T17:53:04.649Z,6.73
2018-08-09T17:57:08.014Z,9.93
2018-08-09T18:01:11.360Z,7.63
2018-08-09T18:05:14.746Z,6.53
2018-08-09T18:09:18.068Z,5.37
2018-08-09T18:13:21.413Z,4.83
2018-08-09T18:17:24.758Z,3.37
2018-08-09T18:21:28.104Z,3.73
2018-08-09T18:25:31.469Z,6.23
2018-08-09T18:29:34.842Z,3.60
2018-08-09T18:33:38.183Z,5.27
2018-08-09T18:37:42.607Z,10.70
2018-08-09T18:41:45.993Z,5.50
2018-08-09T18:45:49.380Z,5.33
2018-08-09T18:49:52.743Z,6.87
2018-08-09T18:53:56.159Z,8.30
2018-08-09T18:57:59.511Z,5.50
2018-08-09T19:02:02.879Z,6.07
2018-08-09T19:06:06.311Z,6.20
2018-08-09T19:10:11.887Z,6.93
2018-08-09T19:14:15.256Z,4.03
2018-08-09T19:18:18.590Z,4.57
2018-08-09T19:22:21.976Z,3.20
2018-08-09T19:26:25.305Z,5.40
2018-08-09T19:30:29.716Z,5.47
2018-08-09T19:34:33.079Z,4.37
2018-08-09T19:38:43.241Z,6.53
2018-08-09T19:42:46.571Z,5.50
2018-08-09T19:46:49.932Z,3.57
2018-08-09T19:50:53.374Z,4.60
2018-08-09T19:54:56.703Z,5.17
2018-08-09T19:59:00.071Z,5.83
2018-08-09T20:03:03.439Z,6.00
2018-08-09T20:07:06.875Z,3.20
2018-08-09T20:11:10.238Z,4.30
2018-08-09T20:15:16.098Z,7.33
2018-08-09T20:19:19.608Z,3.00
2018-08-09T20:23:22.980Z,3.37
2018-08-09T20:27:26.307Z,6.13
2018-08-09T20:31:29.671Z,4.83
2018-08-09T20:35:33.048Z,7.67
2018-08-09T20:39:36.419Z,4.70
2018-08-09T20:43:39.782Z,4.10
2018-08-09T20:47:43.176Z,4.50
2018-08-09T20:51:46.644Z,4.57
2018-08-09T20:55:50.000Z,5.07
2018-08-09T20:59:53.388Z,5.77
2018-08-09T21:03:56.766Z,5.63
2018-08-09T21:08:00.234Z,3.67
2018-08-09T21:12:03.610Z,2.63
2018-08-09T21:16:06.971Z,4.93
2018-08-09T21:20:10.567Z,3.17
2018-08-09T21:24:13.916Z,3.17
2018-08-09T21:28:17.267Z,6.40
2018-08-09T21:32:20.624Z,10.40
2018-08-09T21:36:23.975Z,9.40
2018-08-09T21:40:27.331Z,9.03
2018-08-09T21:44:30.725Z,3.20
2018-08-09T21:48:34.047Z,7.07
2018-08-09T21:52:37.390Z,3.37
2018-08-09T21:56:40.773Z,2.93
2018-08-09T22:00:53.637Z,3.00
2018-08-09T22:05:02.272Z,2.90
2018-08-09T22:10:15.047Z,2.40
2018-08-09T22:14:23.860Z,3.03
2018-08-09T22:18:32.418Z,2.40
2018-08-09T22:22:37.379Z,2.20
2018-08-09T22:26:40.751Z,2.70
2018-08-09T22:30:44.184Z,2.90
2018-08-09T22:34:49.348Z,3.30
2018-08-09T22:38:52.683Z,3.63
2018-08-09T22:42:56.012Z,4.57
2018-08-09T22:46:59.366Z,4.13
2018-08-09T22:51:03.304Z,2.90
2018-08-09T22:55:06.657Z,2.33
2018-08-09T22:59:10.279Z,3.47
2018-08-09T23:03:14.511Z,2.13
2018-08-09T23:07:17.867Z,3.47
2018-08-09T23:11:21.077Z,3.90
2018-08-09T23:15:24.192Z,3.77
2018-08-09T23:19:27.301Z,2.03
2018-08-09T23:23:30.405Z,2.03
2018-08-09T23:27:33.515Z,1.83
2018-08-09T23:31:36.627Z,2.83
2018-08-09T23:35:39.722Z,1.60
2018-08-09T23:39:42.901Z,1.50
2018-08-09T23:43:46.077Z,1.60
2018-08-09T23:47:49.200Z,1.70
2018-08-09T23:51:52.314Z,1.97
2018-08-09T23:55:55.406Z,1.60
2018-08-09T23:59:58.535Z,3.17
